Аэропорт: Витебск Восточный. Витебск

ICAO: UMII

METAR:
Информация по данной станции не доступна
METAR:
2020-08-09 14:06:00
TAF UMII 091406Z 0915/0924 02005MPS 9999 BKN020 TEMPO 0915/0924 VRB10MPS 2000 TSRA BKN005 BKN015CB